Time;durP1;ratioP1;P1;durP2;ratioP2;P2;SDS_P1;SDS_P2;PMS_P1;PMS_P2;Temp;Humidity;BMP_temperature;BMP_pressure;BME280_temperature;BME280_humidity;BME280_pressure;Samples;Min_cycle;Max_cycle;Signal;HPM_P1;HPM_P2
2021/04/27 00:01:50;;;;;;;2.07;0.90;;;;;;;4.54;55.85;101029.44;4997017;28;20259;-74
2021/04/27 00:04:18;;;;;;;3.10;1.00;;;;;;;4.53;55.98;101020.53;5013920;28;20204;-75
2021/04/27 00:06:44;;;;;;;3.23;0.77;;;;;;;4.60;55.62;101015.91;5013654;28;20277;-74
2021/04/27 00:09:12;;;;;;;2.70;1.00;;;;;;;4.59;55.63;101023.13;4997905;28;20629;-75
2021/04/27 00:11:40;;;;;;;3.90;1.00;;;;;;;4.57;55.71;101019.03;5031104;28;20262;-75
2021/04/27 00:14:06;;;;;;;1.00;0.83;;;;;;;4.53;56.20;101022.41;5030161;28;20204;-74
2021/04/27 00:16:32;;;;;;;2.23;1.10;;;;;;;4.53;55.79;101025.91;4997324;28;20239;-74
2021/04/27 00:18:57;;;;;;;1.47;0.80;;;;;;;4.52;56.32;101021.56;5014196;28;20689;-74
2021/04/27 00:21:23;;;;;;;1.33;1.00;;;;;;;4.44;56.38;101013.81;4996712;28;20270;-75
2021/04/27 00:23:51;;;;;;;1.30;1.10;;;;;;;4.54;56.22;101018.66;4995835;28;20215;-74
2021/04/27 00:26:21;;;;;;;1.07;0.90;;;;;;;4.46;56.68;101017.09;4991890;28;20217;-74
2021/04/27 00:28:50;;;;;;;2.67;1.00;;;;;;;4.45;56.51;101017.31;4978391;28;20582;-74
2021/04/27 00:31:17;;;;;;;1.13;0.90;;;;;;;4.37;57.08;101017.63;4993697;28;20224;-74
2021/04/27 00:33:45;;;;;;;1.53;0.90;;;;;;;4.36;57.09;101011.44;4977166;28;20211;-74
2021/04/27 00:36:13;;;;;;;3.50;1.10;;;;;;;4.32;57.18;101010.25;4977228;28;20220;-74
2021/04/27 00:38:41;;;;;;;2.37;1.03;;;;;;;4.30;57.96;101006.13;4993814;28;20192;-74
2021/04/27 00:41:08;;;;;;;2.27;1.10;;;;;;;4.24;57.98;101005.13;4993404;28;20323;-75
2021/04/27 00:43:34;;;;;;;2.90;1.17;;;;;;;4.23;58.39;101000.81;4993106;28;20296;-75
2021/04/27 00:45:59;;;;;;;0.87;0.87;;;;;;;4.17;57.97;101005.44;4976696;28;20613;-74
2021/04/27 00:48:25;;;;;;;1.87;0.87;;;;;;;4.20;58.48;101005.81;4977267;28;20185;-75
2021/04/27 00:50:51;;;;;;;1.40;0.97;;;;;;;4.21;58.43;101004.75;4961174;28;20583;-74
2021/04/27 00:53:16;;;;;;;2.77;0.90;;;;;;;4.19;58.54;101003.34;4976909;28;20209;-74
2021/04/27 00:55:42;;;;;;;1.70;0.83;;;;;;;4.19;58.44;101003.34;4976646;28;20229;-75
2021/04/27 00:58:17;;;;;;;2.33;1.00;;;;;;;4.15;58.59;101002.16;4994019;28;20204;-74
2021/04/27 01:00:43;;;;;;;1.10;1.00;;;;;;;4.14;58.98;100998.66;4993722;28;20725;-74
2021/04/27 01:03:09;;;;;;;1.23;0.70;;;;;;;4.08;59.15;101006.78;4993927;28;20271;-74
2021/04/27 01:05:37;;;;;;;2.17;1.37;;;;;;;4.09;59.79;101011.13;4975960;28;20224;-74
2021/04/27 01:08:12;;;;;;;1.20;0.87;;;;;;;4.11;59.61;100996.41;4978178;28;20242;-74
2021/04/27 01:10:52;;;;;;;2.07;1.43;;;;;;;4.15;59.65;100999.47;4993435;28;20220;-74
2021/04/27 01:13:42;;;;;;;1.57;1.00;;;;;;;4.16;59.19;100998.41;4993203;28;20284;-76
2021/04/27 01:16:10;;;;;;;1.10;1.00;;;;;;;4.10;59.47;100994.75;4977118;28;20312;-75
2021/04/27 01:18:37;;;;;;;1.70;0.97;;;;;;;4.04;60.18;101000.19;4993574;28;20192;-74
2021/04/27 01:21:05;;;;;;;1.93;0.97;;;;;;;4.01;60.21;100996.09;5008626;28;20233;-74
2021/04/27 01:23:52;;;;;;;2.17;0.80;;;;;;;4.05;60.26;100991.09;4976015;28;20768;-74
2021/04/27 01:26:20;;;;;;;1.43;0.90;;;;;;;4.12;60.10;100994.53;4992801;28;20239;-76
2021/04/27 01:28:52;;;;;;;1.40;0.80;;;;;;;4.11;59.92;100979.47;4993312;28;20185;-74
2021/04/27 01:31:18;;;;;;;1.03;0.90;;;;;;;4.17;60.06;100983.94;4984666;28;20756;-74
2021/04/27 01:33:43;;;;;;;1.63;0.83;;;;;;;4.11;60.39;100988.34;4976147;28;20205;-76
2021/04/27 01:36:12;;;;;;;2.80;0.83;;;;;;;4.17;61.03;100987.44;4992639;28;20219;-74
2021/04/27 01:38:47;;;;;;;1.20;1.00;;;;;;;4.30;60.42;100984.59;4978271;28;20191;-74
2021/04/27 01:41:17;;;;;;;0.90;0.80;;;;;;;4.39;59.80;100980.56;4976143;28;20232;-74
2021/04/27 01:43:46;;;;;;;0.97;0.80;;;;;;;4.41;59.91;100982.00;4994556;28;20196;-74
2021/04/27 01:46:12;;;;;;;3.60;1.10;;;;;;;4.42;59.88;100978.28;4980434;28;20837;-73
2021/04/27 01:48:42;;;;;;;1.73;0.90;;;;;;;4.42;60.25;100977.47;4977157;28;20177;-74
2021/04/27 01:51:10;;;;;;;2.67;1.00;;;;;;;4.46;59.94;100984.84;4973351;28;20642;-76
2021/04/27 01:54:10;;;;;;;2.57;1.03;;;;;;;4.41;60.02;100973.91;4987838;28;20620;-76
2021/04/27 01:56:36;;;;;;;1.90;0.87;;;;;;;4.40;60.13;100969.59;4994583;28;20255;-73
2021/04/27 01:59:05;;;;;;;1.00;0.90;;;;;;;4.39;60.15;100977.88;4981041;28;20172;-76
2021/04/27 02:01:36;;;;;;;2.03;0.80;;;;;;;4.31;60.51;100965.56;4980919;28;20873;-75
2021/04/27 02:04:04;;;;;;;4.23;0.93;;;;;;;4.20;61.00;100975.44;4981276;28;20693;-75
2021/04/27 02:06:48;;;;;;;1.87;1.00;;;;;;;4.00;62.57;100969.44;4982689;28;20229;-75
2021/04/27 02:09:16;;;;;;;2.10;0.80;;;;;;;3.97;62.75;100975.25;4981156;28;20369;-75
2021/04/27 02:11:54;;;;;;;0.80;0.80;;;;;;;3.84;63.92;100968.13;4983758;28;20224;-75
2021/04/27 02:14:25;;;;;;;0.80;0.80;;;;;;;3.83;64.15;100976.44;5000121;28;20204;-76
2021/04/27 02:17:05;;;;;;;1.03;0.93;;;;;;;3.86;64.20;100970.59;4999277;28;20306;-75
2021/04/27 02:19:32;;;;;;;3.03;1.03;;;;;;;3.73;64.32;100970.72;4984063;28;20204;-76
2021/04/27 02:22:20;;;;;;;1.40;0.97;;;;;;;3.75;64.90;100975.88;4964405;28;20859;-75
2021/04/27 02:24:52;;;;;;;1.43;0.80;;;;;;;3.63;65.22;100962.38;4966211;28;20212;-75
2021/04/27 02:27:26;;;;;;;2.23;1.07;;;;;;;3.54;65.33;100958.31;4964551;28;20231;-75
2021/04/27 02:29:52;;;;;;;0.80;0.80;;;;;;;3.56;65.68;100953.53;4980196;28;20641;-75
2021/04/27 02:32:20;;;;;;;2.17;0.97;;;;;;;3.43;65.61;100959.03;5013075;28;20705;-74
2021/04/27 02:34:49;;;;;;;1.77;0.90;;;;;;;3.22;66.99;100960.44;4971618;28;20690;-74
2021/04/27 02:37:16;;;;;;;1.77;0.90;;;;;;;3.25;67.44;100965.38;4979695;28;20217;-75
2021/04/27 02:39:50;;;;;;;3.13;1.20;;;;;;;3.25;67.96;100960.00;4964371;28;20213;-75
2021/04/27 02:42:16;;;;;;;1.10;1.00;;;;;;;3.20;68.40;100962.50;4995051;28;20326;-74
2021/04/27 02:45:00;;;;;;;1.00;0.90;;;;;;;3.21;68.06;100950.75;4998802;28;20243;-74
2021/04/27 02:48:06;;;;;;;1.63;1.20;;;;;;;3.03;69.87;100950.66;4930969;28;20223;-75
2021/04/27 02:50:34;;;;;;;2.37;1.00;;;;;;;3.09;69.64;100955.97;4994690;28;20216;-74
2021/04/27 02:53:03;;;;;;;1.20;0.90;;;;;;;3.01;70.19;100952.75;4962978;28;20173;-74
2021/04/27 02:55:34;;;;;;;2.83;0.90;;;;;;;2.96;70.13;100955.25;4979595;28;20209;-74
2021/04/27 02:58:04;;;;;;;1.10;1.00;;;;;;;2.86;70.69;100954.91;4996123;28;20223;-75
2021/04/27 03:00:33;;;;;;;1.10;1.00;;;;;;;2.90;70.46;100955.31;4979562;28;20694;-74
2021/04/27 03:03:04;;;;;;;2.10;1.00;;;;;;;2.92;70.45;100954.03;4976557;28;20197;-74
2021/04/27 03:05:34;;;;;;;4.53;1.00;;;;;;;2.79;71.34;100951.44;4993817;28;20275;-75
2021/04/27 03:08:03;;;;;;;2.20;0.90;;;;;;;2.84;71.33;100957.00;4978941;28;20980;-73
2021/04/27 03:10:29;;;;;;;2.03;1.07;;;;;;;2.91;70.98;100941.69;4978452;28;20274;-74
2021/04/27 03:12:57;;;;;;;1.33;0.90;;;;;;;2.95;70.72;100942.03;4978690;28;20212;-75
2021/04/27 03:15:26;;;;;;;1.90;1.00;;;;;;;2.97;71.02;100940.81;4995209;28;20267;-74
2021/04/27 03:17:52;;;;;;;2.33;1.10;;;;;;;2.96;70.61;100939.16;4963407;28;20200;-74
2021/04/27 03:20:18;;;;;;;1.20;0.90;;;;;;;2.99;70.72;100938.72;4979526;28;20221;-74
2021/04/27 03:23:04;;;;;;;2.90;1.20;;;;;;;2.96;70.61;100933.78;4996988;28;20211;-74
2021/04/27 03:25:29;;;;;;;1.80;1.00;;;;;;;2.97;70.68;100937.28;4978268;28;20229;-75
2021/04/27 03:28:00;;;;;;;1.53;0.80;;;;;;;2.91;71.06;100933.63;4980336;28;20568;-74
2021/04/27 03:30:49;;;;;;;1.20;1.00;;;;;;;2.83;71.37;100933.88;4974142;28;20232;-73
2021/04/27 03:33:21;;;;;;;3.53;1.07;;;;;;;2.77;71.27;100933.94;4978588;28;20243;-74
2021/04/27 03:35:55;;;;;;;3.60;1.10;;;;;;;2.78;72.06;100931.03;4988150;28;20213;-74
2021/04/27 03:38:23;;;;;;;1.07;0.93;;;;;;;2.81;72.10;100929.78;4979092;28;20563;-75
2021/04/27 03:40:51;;;;;;;1.60;1.50;;;;;;;2.79;71.85;100924.63;4995494;28;20231;-74
2021/04/27 03:43:22;;;;;;;2.73;1.20;;;;;;;2.79;71.69;100932.66;4992851;28;20208;-74
2021/04/27 03:45:50;;;;;;;1.73;1.30;;;;;;;2.82;71.95;100928.72;4994557;28;20224;-74
2021/04/27 03:48:17;;;;;;;2.77;1.20;;;;;;;2.84;72.02;100932.00;4995319;28;20185;-74
2021/04/27 03:50:59;;;;;;;2.10;1.27;;;;;;;2.83;71.96;100923.16;4973252;28;20221;-75
2021/04/27 03:53:58;;;;;;;3.77;1.77;;;;;;;2.79;72.41;100921.94;4954869;28;20237;-75
2021/04/27 03:56:28;;;;;;;3.40;1.23;;;;;;;2.79;72.20;100924.63;4973437;28;20671;-75
2021/04/27 03:58:54;;;;;;;2.30;1.10;;;;;;;2.78;71.74;100925.69;4959510;28;20194;-74
2021/04/27 04:01:25;;;;;;;2.20;1.37;;;;;;;2.70;72.42;100922.41;4977205;28;20286;-75
2021/04/27 04:03:52;;;;;;;2.50;1.10;;;;;;;2.72;72.98;100923.84;4993728;28;20347;-74
2021/04/27 04:06:18;;;;;;;4.47;1.30;;;;;;;2.68;73.28;100924.50;4993860;28;20221;-74
2021/04/27 04:09:08;;;;;;;2.23;1.07;;;;;;;2.70;72.85;100923.22;5011571;28;20695;-74
2021/04/27 04:11:50;;;;;;;2.10;1.10;;;;;;;2.76;72.54;100924.22;4965651;28;20237;-75
2021/04/27 04:14:23;;;;;;;4.47;1.13;;;;;;;2.79;72.54;100923.81;4974439;28;20276;-75
2021/04/27 04:17:11;;;;;;;1.33;1.10;;;;;;;2.76;72.83;100927.72;4980774;28;20300;-74
2021/04/27 04:19:37;;;;;;;2.83;1.27;;;;;;;2.76;73.02;100919.69;4977138;28;20196;-74
2021/04/27 04:22:04;;;;;;;3.43;1.20;;;;;;;2.78;72.94;100925.69;4999376;28;20262;-74
2021/04/27 04:24:35;;;;;;;2.90;1.10;;;;;;;2.96;72.68;100925.75;5013528;28;20201;-74
2021/04/27 04:27:06;;;;;;;1.43;1.00;;;;;;;3.05;72.07;100927.13;4978048;28;20252;-76
2021/04/27 04:29:55;;;;;;;4.03;1.50;;;;;;;3.18;71.32;100927.84;5000425;28;20846;-74
2021/04/27 04:32:41;;;;;;;2.27;1.27;;;;;;;3.68;70.26;100933.00;4996077;28;20306;-75
2021/04/27 04:35:26;;;;;;;1.37;1.20;;;;;;;4.51;66.24;100930.41;4996191;28;20610;-74
2021/04/27 04:38:11;;;;;;;3.13;1.20;;;;;;;4.80;63.58;100912.38;4997469;28;20212;-74
2021/04/27 04:41:00;;;;;;;3.07;1.00;;;;;;;4.93;62.33;100914.03;4996374;28;20766;-74
2021/04/27 04:43:44;;;;;;;2.47;1.20;;;;;;;4.78;62.11;100913.66;4989461;28;20599;-74
2021/04/27 04:46:28;;;;;;;3.23;1.20;;;;;;;4.89;61.83;100924.47;4991098;28;20629;-74
2021/04/27 04:48:59;;;;;;;2.43;1.17;;;;;;;4.71;62.47;100929.09;4975028;28;20193;-73
2021/04/27 04:51:44;;;;;;;2.03;1.17;;;;;;;4.59;63.00;100925.50;4990856;28;20228;-75
2021/04/27 04:54:36;;;;;;;2.50;1.33;;;;;;;4.46;63.58;100931.06;4984593;28;20647;-74
2021/04/27 04:57:05;;;;;;;1.40;1.13;;;;;;;4.64;63.51;100931.03;4958357;28;20230;-75
2021/04/27 04:59:31;;;;;;;1.30;1.20;;;;;;;4.88;62.96;100919.31;4974324;28;20192;-75
2021/04/27 05:02:02;;;;;;;1.37;1.20;;;;;;;5.29;61.68;100926.31;4957629;28;20227;-74
2021/04/27 05:04:46;;;;;;;2.00;1.23;;;;;;;5.30;60.96;100936.03;5003002;28;21048;-75
2021/04/27 05:07:32;;;;;;;1.30;1.03;;;;;;;5.09;61.27;100931.19;4996202;28;20684;-74
2021/04/27 05:10:23;;;;;;;1.57;1.20;;;;;;;5.57;59.57;100923.78;5010930;28;20687;-75
2021/04/27 05:13:10;;;;;;;2.60;1.50;;;;;;;6.01;58.19;100929.44;4995434;28;20181;-75
2021/04/27 05:15:35;;;;;;;2.93;1.40;;;;;;;6.35;56.48;100926.66;5008504;28;20302;-75
2021/04/27 05:18:03;;;;;;;4.77;1.47;;;;;;;5.73;58.07;100932.00;4993088;28;20177;-75
2021/04/27 05:20:28;;;;;;;2.10;1.20;;;;;;;5.44;59.33;100935.59;5009271;28;20763;-75
2021/04/27 05:22:54;;;;;;;4.40;1.43;;;;;;;5.12;60.94;100941.50;5008952;28;20189;-75
2021/04/27 05:25:28;;;;;;;2.37;1.40;;;;;;;5.00;61.72;100937.97;4992813;28;20295;-74
2021/04/27 05:28:13;;;;;;;1.50;1.33;;;;;;;4.93;62.35;100936.41;5009698;28;20188;-73
2021/04/27 05:30:39;;;;;;;1.40;1.30;;;;;;;4.97;62.30;100939.47;4976811;28;20690;-73
2021/04/27 05:33:04;;;;;;;2.53;1.40;;;;;;;4.89;62.92;100937.09;4993034;28;20217;-75
2021/04/27 05:35:30;;;;;;;2.73;1.30;;;;;;;5.01;62.61;100942.28;5012447;28;20254;-74
2021/04/27 05:37:56;;;;;;;2.67;1.50;;;;;;;4.92;63.34;100939.31;5028799;28;20615;-73
2021/04/27 05:40:21;;;;;;;2.70;1.43;;;;;;;4.88;63.45;100938.97;5012653;28;20696;-74
2021/04/27 05:42:47;;;;;;;1.70;1.40;;;;;;;4.97;63.01;100939.47;5012500;28;20216;-75
2021/04/27 05:45:15;;;;;;;5.23;1.40;;;;;;;5.02;63.10;100938.53;5028966;28;20542;-74
2021/04/27 05:47:41;;;;;;;2.30;1.53;;;;;;;5.18;62.48;100950.50;5012930;28;20199;-75
2021/04/27 05:50:07;;;;;;;3.30;1.53;;;;;;;5.25;61.65;100938.59;5029444;28;20181;-74
2021/04/27 05:52:33;;;;;;;1.73;1.40;;;;;;;5.30;61.50;100943.31;5046660;28;20223;-75
2021/04/27 05:55:03;;;;;;;3.77;1.47;;;;;;;5.48;61.33;100941.34;5029952;28;20283;-73
2021/04/27 05:57:30;;;;;;;2.83;1.50;;;;;;;5.47;60.71;100945.88;5031571;28;20192;-75
2021/04/27 05:59:56;;;;;;;2.13;1.40;;;;;;;5.58;60.67;100946.97;4999051;28;20274;-74
2021/04/27 06:02:22;;;;;;;1.37;1.27;;;;;;;5.67;59.83;100942.88;5029244;28;20220;-74
2021/04/27 06:04:47;;;;;;;2.93;1.37;;;;;;;5.80;59.88;100948.88;5017920;28;20915;-75
2021/04/27 06:07:13;;;;;;;3.90;1.30;;;;;;;5.86;59.28;100945.25;5009727;28;20227;-75
2021/04/27 06:09:40;;;;;;;2.27;1.40;;;;;;;6.12;58.95;100942.91;5010474;28;20239;-73
2021/04/27 06:12:06;;;;;;;1.67;1.33;;;;;;;6.34;58.52;100941.22;4992595;28;20228;-74
2021/04/27 06:14:32;;;;;;;1.87;1.50;;;;;;;6.32;57.92;100941.44;4994135;28;20810;-74
2021/04/27 06:17:02;;;;;;;1.73;1.20;;;;;;;6.44;57.66;100944.13;5017136;28;20278;-74
2021/04/27 06:19:30;;;;;;;3.53;1.40;;;;;;;6.54;56.63;100942.47;5030788;28;20189;-74
2021/04/27 06:21:57;;;;;;;3.70;1.23;;;;;;;6.70;56.69;100942.53;5012677;28;20768;-74
2021/04/27 06:24:23;;;;;;;2.77;1.50;;;;;;;6.83;56.13;100944.94;5000380;28;20296;-75
2021/04/27 06:26:49;;;;;;;7.13;3.63;;;;;;;6.91;55.34;100939.16;4994464;28;20729;-74
2021/04/27 06:29:14;;;;;;;2.33;1.30;;;;;;;6.82;55.00;100939.78;5015156;28;20192;-74
2021/04/27 06:31:40;;;;;;;4.00;1.60;;;;;;;7.09;55.05;100947.84;5002758;28;20225;-76
2021/04/27 06:34:08;;;;;;;2.13;1.17;;;;;;;7.32;54.35;100945.81;4992046;28;20217;-75
2021/04/27 06:36:33;;;;;;;2.37;1.40;;;;;;;7.55;53.94;100937.59;5003230;28;20251;-74
2021/04/27 06:39:00;;;;;;;1.73;1.30;;;;;;;7.57;53.16;100935.47;5003709;28;20188;-75
2021/04/27 06:41:29;;;;;;;1.53;1.23;;;;;;;7.80;52.14;100936.09;4997223;28;20753;-75
2021/04/27 06:43:59;;;;;;;1.37;1.20;;;;;;;7.97;51.64;100926.09;4981355;28;20231;-74
2021/04/27 06:46:28;;;;;;;4.03;1.40;;;;;;;8.07;51.03;100932.44;5014565;28;20232;-75
2021/04/27 06:48:53;;;;;;;3.07;1.70;;;;;;;7.98;50.41;100925.00;4998202;28;20189;-75
2021/04/27 06:51:22;;;;;;;3.17;1.43;;;;;;;8.14;50.17;100927.69;4998099;28;20220;-76
2021/04/27 06:53:52;;;;;;;5.00;1.67;;;;;;;8.16;49.42;100925.56;4997898;28;20335;-76
2021/04/27 06:56:18;;;;;;;2.53;1.50;;;;;;;8.48;49.33;100930.06;4997921;28;20225;-75
2021/04/27 06:58:43;;;;;;;2.77;1.23;;;;;;;8.51;48.57;100923.31;4997607;28;20655;-75
2021/04/27 07:01:09;;;;;;;6.37;5.77;;;;;;;8.66;48.18;100920.78;4991686;28;20311;-75
2021/04/27 07:03:35;;;;;;;5.70;3.23;;;;;;;8.67;47.44;100917.03;4993996;28;20655;-74
2021/04/27 07:06:00;;;;;;;4.87;3.30;;;;;;;8.26;47.89;100919.47;4976398;28;20212;-75
2021/04/27 07:08:26;;;;;;;4.47;1.30;;;;;;;8.46;48.04;100920.53;5011609;28;20177;-74
2021/04/27 07:10:53;;;;;;;2.43;1.30;;;;;;;8.69;47.65;100920.28;4977355;28;20218;-75
2021/04/27 07:13:19;;;;;;;1.73;1.50;;;;;;;8.62;46.58;100916.97;4977165;28;20220;-75
2021/04/27 07:15:47;;;;;;;1.67;1.40;;;;;;;8.68;46.50;100911.34;4992380;28;20231;-75
2021/04/27 07:18:14;;;;;;;4.07;1.40;;;;;;;8.81;47.01;100902.00;5002750;28;20328;-75
2021/04/27 07:20:42;;;;;;;7.20;1.40;;;;;;;8.76;45.95;100918.22;5005388;28;20293;-75
2021/04/27 07:23:10;;;;;;;3.97;1.47;;;;;;;9.01;46.11;100909.28;5031605;28;20188;-75
2021/04/27 07:25:36;;;;;;;3.43;1.70;;;;;;;9.04;45.39;100914.16;5013494;28;20217;-74
2021/04/27 07:28:04;;;;;;;1.93;1.20;;;;;;;9.13;44.90;100904.50;5031812;28;20245;-74
2021/04/27 07:30:33;;;;;;;2.53;1.43;;;;;;;8.98;44.13;100909.78;4998031;28;20221;-74
2021/04/27 07:32:59;;;;;;;4.23;1.37;;;;;;;9.14;44.71;100908.88;4980070;28;20200;-75
2021/04/27 07:35:24;;;;;;;1.83;1.23;;;;;;;9.31;44.63;100899.53;4979487;28;20276;-75
2021/04/27 07:37:50;;;;;;;4.20;1.70;;;;;;;9.35;44.75;100894.41;4994643;28;20173;-75
2021/04/27 07:40:15;;;;;;;1.33;1.20;;;;;;;9.35;43.53;100889.00;4992440;28;20208;-73
2021/04/27 07:42:42;;;;;;;2.70;1.30;;;;;;;9.59;42.92;100901.94;4976312;28;20750;-76
2021/04/27 07:45:14;;;;;;;2.90;1.60;;;;;;;9.74;42.04;100881.16;4992262;28;20205;-75
2021/04/27 07:47:40;;;;;;;2.50;1.47;;;;;;;9.83;42.53;100882.28;4977281;28;20194;-75
2021/04/27 07:50:06;;;;;;;2.13;1.00;;;;;;;9.91;41.87;100889.13;4995411;28;20169;-77
2021/04/27 07:52:33;;;;;;;1.57;1.07;;;;;;;9.92;40.12;100878.03;4996878;28;20721;-75
2021/04/27 07:54:59;;;;;;;2.07;1.13;;;;;;;10.10;40.46;100883.03;4996656;28;20210;-75
2021/04/27 07:57:27;;;;;;;2.20;1.10;;;;;;;10.03;40.30;100882.44;4979563;28;20225;-75
2021/04/27 07:59:55;;;;;;;2.33;1.40;;;;;;;10.21;39.62;100873.88;4981548;28;20680;-73
2021/04/27 08:02:20;;;;;;;1.50;1.17;;;;;;;10.17;39.70;100872.75;4996925;28;20229;-76
2021/04/27 08:04:50;;;;;;;2.27;1.40;;;;;;;10.35;39.61;100864.13;4993617;28;20209;-75
2021/04/27 08:07:16;;;;;;;1.27;1.17;;;;;;;10.27;38.62;100864.66;4999123;28;20230;-74
2021/04/27 08:09:48;;;;;;;4.13;1.17;;;;;;;10.24;38.54;100867.91;4999506;28;20185;-75
2021/04/27 08:12:13;;;;;;;3.07;1.07;;;;;;;10.36;38.96;100865.78;5015051;28;20232;-73
2021/04/27 08:14:39;;;;;;;1.93;1.00;;;;;;;10.68;38.23;100864.53;4981198;28;20196;-76
2021/04/27 08:17:07;;;;;;;2.90;1.20;;;;;;;10.83;36.96;100865.41;4980300;28;20278;-75
2021/04/27 08:19:33;;;;;;;1.60;1.07;;;;;;;10.80;37.20;100860.47;4996994;28;20243;-76
2021/04/27 08:22:00;;;;;;;2.63;1.00;;;;;;;10.92;36.88;100856.44;5017445;28;20224;-75
2021/04/27 08:24:25;;;;;;;1.40;1.07;;;;;;;10.82;36.27;100851.00;5015318;28;20230;-75
2021/04/27 08:26:56;;;;;;;1.60;1.00;;;;;;;10.99;35.66;100861.59;5014678;28;20225;-75
2021/04/27 08:29:23;;;;;;;1.30;1.00;;;;;;;10.95;35.60;100860.50;5015420;28;20185;-74
2021/04/27 08:31:49;;;;;;;2.90;1.20;;;;;;;10.79;35.87;100867.03;5029450;28;20216;-74
2021/04/27 08:34:19;;;;;;;2.27;1.33;;;;;;;10.96;35.84;100865.69;5023492;28;20196;-74
2021/04/27 08:36:45;;;;;;;1.83;1.03;;;;;;;11.21;37.15;100861.09;5004186;28;20224;-75
2021/04/27 08:39:10;;;;;;;2.43;2.13;;;;;;;11.41;35.30;100861.09;4995024;28;20185;-75
2021/04/27 08:41:38;;;;;;;3.30;1.20;;;;;;;11.22;35.41;100857.28;4977907;28;20311;-74
2021/04/27 08:44:05;;;;;;;1.57;1.00;;;;;;;11.52;35.62;100869.00;5010837;28;20292;-75
2021/04/27 08:46:36;;;;;;;3.97;0.97;;;;;;;11.47;34.40;100865.47;5011376;28;20698;-75
2021/04/27 08:49:05;;;;;;;5.00;1.10;;;;;;;11.43;34.55;100864.38;5010476;28;20189;-74
2021/04/27 08:51:30;;;;;;;1.37;0.90;;;;;;;11.33;33.71;100858.91;5008986;28;20232;-75
2021/04/27 08:53:58;;;;;;;3.23;1.00;;;;;;;11.44;32.70;100848.84;5010147;28;20217;-74
2021/04/27 08:56:25;;;;;;;1.43;1.00;;;;;;;11.18;33.78;100861.63;4994023;28;20328;-75
2021/04/27 08:58:53;;;;;;;2.03;1.10;;;;;;;11.53;33.59;100850.78;5010449;28;20188;-74
2021/04/27 09:01:21;;;;;;;1.30;0.90;;;;;;;11.68;33.14;100848.03;5009890;28;20237;-75
2021/04/27 09:03:50;;;;;;;1.20;1.10;;;;;;;11.63;33.89;100848.06;5010085;28;20200;-74
2021/04/27 09:06:20;;;;;;;1.67;0.93;;;;;;;11.53;34.03;100845.34;5024827;28;20227;-75
2021/04/27 09:08:49;;;;;;;4.30;1.00;;;;;;;11.72;33.95;100840.94;5009594;28;20207;-74
2021/04/27 09:11:43;;;;;;;1.67;0.90;;;;;;;11.69;33.76;100834.16;4993444;28;20267;-73
2021/04/27 09:14:16;;;;;;;1.60;1.00;;;;;;;11.55;33.19;100837.72;5009765;28;20201;-75
2021/04/27 09:16:52;;;;;;;1.80;0.80;;;;;;;11.77;32.98;100827.34;4993616;28;20237;-75
2021/04/27 09:19:41;;;;;;;1.07;0.87;;;;;;;11.90;32.58;100832.22;5010831;28;20195;-74
2021/04/27 09:22:20;;;;;;;1.77;1.00;;;;;;;11.78;32.39;100832.50;5008803;28;20614;-74
2021/04/27 09:24:51;;;;;;;2.03;0.90;;;;;;;11.87;34.02;100821.84;4977584;28;20261;-74
2021/04/27 09:27:28;;;;;;;2.00;1.13;;;;;;;12.16;34.04;100827.22;5040523;28;20285;-75
2021/04/27 09:30:12;;;;;;;1.13;1.00;;;;;;;12.24;33.46;100813.03;5029672;28;20188;-74
2021/04/27 09:32:44;;;;;;;1.57;1.13;;;;;;;12.20;33.81;100814.69;5011910;28;20212;-74
2021/04/27 09:35:55;;;;;;;3.03;1.10;;;;;;;12.17;32.35;100807.06;5014243;28;20204;-75
2021/04/27 09:38:27;;;;;;;1.80;1.00;;;;;;;11.93;31.48;100822.38;5004028;28;20194;-74
2021/04/27 09:40:56;;;;;;;0.97;0.80;;;;;;;12.20;31.26;100801.06;4989270;28;20239;-74
2021/04/27 09:43:32;;;;;;;2.47;1.10;;;;;;;12.23;31.05;100799.69;5005558;28;20208;-74
2021/04/27 09:46:00;;;;;;;2.37;0.87;;;;;;;12.55;31.46;100798.16;4989727;28;20299;-76
2021/04/27 09:48:47;;;;;;;2.40;0.83;;;;;;;12.66;30.68;100784.19;4989895;28;20644;-75
2021/04/27 09:51:19;;;;;;;1.60;1.10;;;;;;;12.82;31.37;100783.00;5005746;28;20810;-75
2021/04/27 09:53:53;;;;;;;1.30;1.20;;;;;;;12.83;30.75;100780.00;4989315;28;20213;-75
2021/04/27 09:56:39;;;;;;;2.33;1.20;;;;;;;12.81;31.89;100782.19;5005346;28;20291;-75
2021/04/27 09:59:18;;;;;;;1.43;1.10;;;;;;;12.43;31.58;100773.16;4989659;28;20265;-75
2021/04/27 10:01:52;;;;;;;2.67;1.30;;;;;;;12.46;30.51;100772.59;4988603;28;20888;-75
2021/04/27 10:04:18;;;;;;;2.40;1.43;;;;;;;12.49;31.24;100772.03;4994426;28;20208;-74
2021/04/27 10:06:46;;;;;;;3.07;1.30;;;;;;;12.92;31.51;100763.84;5000174;28;20695;-74
2021/04/27 10:09:12;;;;;;;2.67;1.10;;;;;;;13.14;32.35;100762.28;5026067;28;20199;-74
2021/04/27 10:11:38;;;;;;;1.37;1.10;;;;;;;13.31;30.70;100754.50;5025417;28;20327;-76
2021/04/27 10:14:07;;;;;;;1.50;1.00;;;;;;;13.22;29.75;100750.75;5000566;28;20204;-75
2021/04/27 10:16:35;;;;;;;2.87;1.27;;;;;;;12.99;30.02;100751.53;5028777;28;20627;-74
2021/04/27 10:19:04;;;;;;;1.40;1.30;;;;;;;13.08;30.24;100752.53;5016218;28;20192;-77
2021/04/27 10:21:30;;;;;;;2.27;1.43;;;;;;;12.96;30.95;100759.47;5015797;28;20272;-75
2021/04/27 10:24:00;;;;;;;2.57;1.57;;;;;;;12.65;30.38;100749.03;5031805;28;20208;-74
2021/04/27 10:26:27;;;;;;;2.70;1.10;;;;;;;12.68;30.91;100748.47;5015615;28;20234;-74
2021/04/27 10:29:02;;;;;;;1.40;1.30;;;;;;;12.71;31.22;100732.38;5032826;28;20196;-74
2021/04/27 10:31:34;;;;;;;3.43;1.53;;;;;;;12.49;31.29;100740.16;5031878;28;20219;-74
2021/04/27 10:34:07;;;;;;;1.40;1.30;;;;;;;12.46;30.75;100729.00;5009556;28;20267;-74
2021/04/27 10:36:36;;;;;;;2.30;1.20;;;;;;;12.54;30.35;100722.94;5011441;28;20228;-75
2021/04/27 10:39:07;;;;;;;4.23;1.30;;;;;;;12.52;31.12;100716.97;4996567;28;20200;-75
2021/04/27 10:41:45;;;;;;;3.83;1.40;;;;;;;12.77;30.69;100721.13;4995715;28;20236;-74
2021/04/27 10:44:15;;;;;;;2.07;1.30;;;;;;;13.04;31.57;100726.94;5028679;28;20285;-74
2021/04/27 10:46:43;;;;;;;2.67;1.20;;;;;;;13.44;30.63;100721.88;4996013;28;20225;-75
2021/04/27 10:49:39;;;;;;;2.47;1.30;;;;;;;13.25;29.36;100717.47;5012551;28;20243;-76
2021/04/27 10:52:05;;;;;;;1.33;1.10;;;;;;;13.53;29.73;100707.34;4995156;28;20307;-73
2021/04/27 10:54:33;;;;;;;1.43;1.10;;;;;;;13.19;30.55;100696.81;5012209;28;20209;-74
2021/04/27 10:57:05;;;;;;;2.33;1.67;;;;;;;13.20;30.78;100698.41;4995290;28;20237;-73
2021/04/27 10:59:47;;;;;;;2.33;1.30;;;;;;;13.55;31.62;100696.09;5021625;28;20188;-76
2021/04/27 11:02:16;;;;;;;1.40;1.10;;;;;;;14.01;30.01;100698.84;5006519;28;20216;-74
2021/04/27 11:04:46;;;;;;;3.37;1.43;;;;;;;14.09;29.10;100692.72;4996231;28;20220;-74
2021/04/27 11:07:23;;;;;;;2.03;1.57;;;;;;;14.31;29.19;100691.03;4995509;28;20216;-74
2021/04/27 11:09:57;;;;;;;1.83;1.30;;;;;;;14.41;29.06;100682.69;5013297;28;20184;-73
2021/04/27 11:12:29;;;;;;;1.30;1.20;;;;;;;14.02;29.79;100684.06;5010373;28;20227;-74
2021/04/27 11:15:03;;;;;;;2.30;1.80;;;;;;;14.37;29.81;100678.09;5013062;28;20683;-73
2021/04/27 11:17:39;;;;;;;2.97;1.50;;;;;;;14.10;28.90;100682.59;4995487;28;20717;-73
2021/04/27 11:20:10;;;;;;;1.95;1.15;;;;;;;13.91;28.98;100690.75;4995569;28;20213;-74
2021/04/27 11:22:36;;;;;;;1.47;1.27;;;;;;;13.75;28.88;100685.75;5027561;28;20303;-75
2021/04/27 11:25:08;;;;;;;1.83;1.27;;;;;;;13.94;29.06;100683.91;5047024;28;20207;-74
2021/04/27 11:27:37;;;;;;;1.73;1.30;;;;;;;14.11;28.01;100662.38;5031896;28;20839;-73
2021/04/27 11:30:06;;;;;;;2.43;1.33;;;;;;;14.05;29.25;100669.84;5014069;28;20192;-74
2021/04/27 11:32:33;;;;;;;2.57;1.20;;;;;;;14.40;29.94;100661.94;5030226;28;20278;-74
2021/04/27 11:35:16;;;;;;;4.07;1.53;;;;;;;14.64;29.63;100673.56;5034377;28;20767;-76
2021/04/27 11:37:48;;;;;;;2.83;1.37;;;;;;;14.63;28.54;100663.72;5011547;28;20213;-74
2021/04/27 11:40:20;;;;;;;1.73;1.30;;;;;;;14.58;27.44;100669.31;5007148;28;20209;-74
2021/04/27 11:42:58;;;;;;;1.77;1.30;;;;;;;13.76;27.95;100660.09;5007398;28;20196;-75
2021/04/27 11:45:28;;;;;;;5.13;1.40;;;;;;;14.17;27.92;100658.47;4976552;28;20217;-75
2021/04/27 11:47:54;;;;;;;1.57;1.40;;;;;;;14.70;28.05;100655.97;4975797;28;20181;-75
2021/04/27 11:50:25;;;;;;;5.03;1.63;;;;;;;14.66;28.22;100660.41;4990986;28;20739;-74